Time;durP1;ratioP1;P1;durP2;ratioP2;P2;SDS_P1;SDS_P2;PMS_P1;PMS_P2;Temp;Humidity;BMP_temperature;BMP_pressure;BME280_temperature;BME280_humidity;BME280_pressure;Samples;Min_cycle;Max_cycle;Signal;HPM_P1;HPM_P2
2022/08/17 00:00:48;;;;;;;5.07;4.53;;;21.30;83.40;;;;;;5072616;28;20575;-69
2022/08/17 00:03:28;;;;;;;5.32;4.82;;;21.20;83.40;;;;;;5070322;28;20385;-69
2022/08/17 00:06:12;;;;;;;5.13;4.63;;;21.20;83.80;;;;;;5068395;28;20028;-68
2022/08/17 00:08:39;;;;;;;5.95;5.07;;;21.20;84.00;;;;;;5077625;28;20047;-68
2022/08/17 00:11:08;;;;;;;5.80;5.30;;;21.20;84.30;;;;;;5065822;28;20059;-68
2022/08/17 00:13:36;;;;;;;6.25;4.65;;;21.20;84.40;;;;;;5064769;28;20028;-68
2022/08/17 00:16:17;;;;;;;6.63;4.80;;;21.20;85.20;;;;;;5075772;28;20032;-68
2022/08/17 00:18:44;;;;;;;6.38;5.47;;;21.20;84.40;;;;;;5082199;28;20035;-68
2022/08/17 00:21:12;;;;;;;6.50;5.55;;;21.20;84.40;;;;;;5075953;28;20048;-68
2022/08/17 00:23:40;;;;;;;6.00;5.32;;;21.10;84.30;;;;;;5074199;28;20047;-69
2022/08/17 00:26:06;;;;;;;5.40;4.88;;;21.10;84.40;;;;;;5072479;28;20051;-68
2022/08/17 00:28:32;;;;;;;6.55;5.20;;;21.10;84.40;;;;;;5076867;28;20307;-69
2022/08/17 00:30:58;;;;;;;6.25;4.88;;;21.10;84.40;;;;;;5074634;28;20665;-68
2022/08/17 00:33:27;;;;;;;7.18;5.20;;;21.00;84.60;;;;;;5079072;28;20064;-68
2022/08/17 00:35:55;;;;;;;8.75;5.05;;;20.90;84.80;;;;;;5075189;28;20586;-68
2022/08/17 00:38:22;;;;;;;7.20;5.78;;;20.90;85.30;;;;;;5078960;28;20032;-68
2022/08/17 00:40:53;;;;;;;6.38;5.55;;;20.80;85.10;;;;;;5078641;28;20111;-67
2022/08/17 00:43:39;;;;;;;8.38;5.97;;;20.80;85.40;;;;;;5072380;28;20043;-68
2022/08/17 00:46:14;;;;;;;7.22;5.90;;;20.80;85.60;;;;;;5066080;28;20161;-68
2022/08/17 00:48:41;;;;;;;6.00;5.35;;;20.70;85.80;;;;;;5076947;28;20119;-68
2022/08/17 00:51:09;;;;;;;10.57;6.07;;;20.70;86.10;;;;;;5064477;28;20039;-68
2022/08/17 00:53:38;;;;;;;6.68;5.85;;;20.60;86.60;;;;;;5067042;28;20732;-68
2022/08/17 00:56:13;;;;;;;6.68;5.85;;;20.60;87.00;;;;;;5069639;28;20387;-68
2022/08/17 00:58:39;;;;;;;7.32;5.82;;;20.60;87.60;;;;;;5073544;28;20554;-68
2022/08/17 01:01:09;;;;;;;7.05;5.75;;;20.60;87.60;;;;;;5073236;28;20032;-68
2022/08/17 01:03:36;;;;;;;6.95;6.25;;;20.60;87.70;;;;;;5074511;28;20556;-68
2022/08/17 01:06:04;;;;;;;6.38;5.65;;;20.60;87.80;;;;;;5073174;28;20814;-68
2022/08/17 01:08:31;;;;;;;8.88;6.10;;;20.60;87.50;;;;;;5067324;28;20123;-68
2022/08/17 01:11:04;;;;;;;6.57;5.85;;;20.70;87.20;;;;;;5065259;28;20044;-68
2022/08/17 01:13:48;;;;;;;5.90;5.40;;;20.70;86.90;;;;;;5071691;28;20758;-69
2022/08/17 01:16:34;;;;;;;6.25;5.50;;;20.80;86.80;;;;;;5077434;28;20039;-69
2022/08/17 01:19:12;;;;;;;6.22;5.13;;;20.80;86.90;;;;;;5077146;28;20508;-68
2022/08/17 01:22:10;;;;;;;7.00;5.90;;;20.80;86.70;;;;;;5079935;28;20570;-69
2022/08/17 01:24:42;;;;;;;6.40;5.60;;;20.80;87.00;;;;;;5067288;28;20130;-68
2022/08/17 01:27:09;;;;;;;7.85;5.70;;;20.80;87.50;;;;;;5066578;28;20036;-68
2022/08/17 01:29:37;;;;;;;7.28;5.85;;;20.80;87.60;;;;;;5075673;28;20475;-68
2022/08/17 01:32:05;;;;;;;8.70;5.65;;;20.80;87.20;;;;;;5075015;28;20032;-69
2022/08/17 01:34:31;;;;;;;5.82;5.15;;;20.80;86.80;;;;;;5070481;28;20463;-68
2022/08/17 01:36:58;;;;;;;6.28;5.68;;;20.70;87.30;;;;;;5069689;28;20032;-68
2022/08/17 01:39:43;;;;;;;6.70;5.63;;;20.70;87.60;;;;;;5073270;28;20024;-68
2022/08/17 01:42:33;;;;;;;6.72;5.22;;;20.60;87.40;;;;;;5073828;28;20040;-68
2022/08/17 01:45:08;;;;;;;6.45;5.50;;;20.60;86.90;;;;;;5063264;28;20052;-68
2022/08/17 01:47:35;;;;;;;7.70;6.10;;;20.60;86.70;;;;;;5064358;28;20032;-69
2022/08/17 01:50:11;;;;;;;9.75;5.90;;;20.50;86.40;;;;;;5063276;28;20111;-69
2022/08/17 01:52:38;;;;;;;7.93;5.75;;;20.50;86.90;;;;;;5069998;28;20036;-69
2022/08/17 01:55:05;;;;;;;8.95;5.90;;;20.40;87.30;;;;;;5070244;28;20036;-68
2022/08/17 01:57:31;;;;;;;6.47;5.55;;;20.30;87.70;;;;;;5067936;28;20028;-69
2022/08/17 01:59:56;;;;;;;8.60;6.60;;;20.20;88.10;;;;;;5068823;28;20483;-68
2022/08/17 02:02:22;;;;;;;7.82;6.60;;;20.20;88.50;;;;;;5070200;28;20440;-68
2022/08/17 02:04:48;;;;;;;9.20;6.22;;;20.20;88.90;;;;;;5065326;28;20741;-71
2022/08/17 02:07:15;;;;;;;10.13;6.20;;;20.20;89.40;;;;;;5067908;28;20036;-71
2022/08/17 02:09:42;;;;;;;8.05;6.57;;;20.10;89.90;;;;;;5066992;28;20499;-72
2022/08/17 02:12:09;;;;;;;8.05;6.88;;;20.10;90.70;;;;;;5072497;28;20028;-72
2022/08/17 02:14:34;;;;;;;8.63;7.53;;;20.10;91.70;;;;;;5072639;28;20035;-71
2022/08/17 02:17:00;;;;;;;9.10;7.60;;;20.10;92.30;;;;;;5071763;28;20024;-71
2022/08/17 02:19:26;;;;;;;8.50;6.95;;;20.20;93.00;;;;;;5066500;28;20510;-71
2022/08/17 02:21:53;;;;;;;7.78;6.97;;;20.30;92.90;;;;;;5071557;28;20032;-71
2022/08/17 02:24:26;;;;;;;7.00;6.28;;;20.30;92.30;;;;;;5065054;28;20028;-71
2022/08/17 02:26:52;;;;;;;6.93;5.68;;;20.30;91.10;;;;;;5069949;28;20115;-71
2022/08/17 02:29:18;;;;;;;7.07;6.32;;;20.30;90.80;;;;;;5064349;28;20466;-72
2022/08/17 02:31:44;;;;;;;7.43;6.05;;;20.30;90.80;;;;;;5072550;28;20028;-71
2022/08/17 02:34:11;;;;;;;8.00;6.60;;;20.30;91.00;;;;;;5073663;28;20109;-71
2022/08/17 02:36:37;;;;;;;5.90;5.40;;;20.30;91.40;;;;;;5073811;28;20024;-72
2022/08/17 02:39:05;;;;;;;6.22;5.63;;;20.30;91.30;;;;;;5073058;28;20040;-72
2022/08/17 02:41:31;;;;;;;6.68;5.85;;;20.30;91.60;;;;;;5074585;28;20189;-71
2022/08/17 02:43:57;;;;;;;6.13;5.53;;;20.30;90.90;;;;;;5062874;28;20067;-71
2022/08/17 02:46:23;;;;;;;5.97;5.38;;;20.30;90.80;;;;;;5069673;28;20633;-71
2022/08/17 02:48:49;;;;;;;9.52;6.45;;;20.30;90.70;;;;;;5069010;28;20048;-72
2022/08/17 02:51:15;;;;;;;7.88;5.80;;;20.30;90.40;;;;;;5071333;28;20120;-72
2022/08/17 02:53:41;;;;;;;7.55;5.93;;;20.30;90.00;;;;;;5075492;28;20494;-72
2022/08/17 02:56:07;;;;;;;7.03;6.00;;;20.20;90.00;;;;;;5084235;28;20032;-71
2022/08/17 02:58:33;;;;;;;6.40;5.47;;;20.20;90.20;;;;;;5068491;28;20039;-72
2022/08/17 03:00:59;;;;;;;6.45;5.53;;;20.10;90.40;;;;;;5069887;28;20030;-72
2022/08/17 03:03:25;;;;;;;5.85;5.28;;;20.10;90.80;;;;;;5067196;28;20032;-71
2022/08/17 03:05:51;;;;;;;6.07;5.47;;;20.00;90.80;;;;;;5067328;28;20112;-71
2022/08/17 03:08:18;;;;;;;6.55;5.85;;;20.00;90.90;;;;;;5071983;28;20028;-71
2022/08/17 03:10:44;;;;;;;6.10;5.60;;;20.10;91.00;;;;;;5079535;28;20036;-71
2022/08/17 03:13:13;;;;;;;6.88;5.90;;;20.10;91.00;;;;;;5073750;28;20038;-71
2022/08/17 03:15:43;;;;;;;5.75;5.20;;;20.10;91.10;;;;;;5075101;28;20024;-71
2022/08/17 03:18:10;;;;;;;6.35;5.75;;;20.10;90.80;;;;;;5067371;28;20036;-71
2022/08/17 03:20:36;;;;;;;8.20;5.30;;;20.00;90.50;;;;;;5070131;28;20020;-71
2022/08/17 03:23:03;;;;;;;5.80;5.30;;;20.00;90.30;;;;;;5061290;28;20861;-71
2022/08/17 03:25:32;;;;;;;6.15;5.55;;;20.00;90.50;;;;;;5064049;28;20032;-71
2022/08/17 03:27:57;;;;;;;6.90;5.53;;;20.00;90.60;;;;;;5067109;28;20689;-71
2022/08/17 03:30:25;;;;;;;6.93;6.05;;;20.00;90.60;;;;;;5070004;28;20131;-71
2022/08/17 03:32:53;;;;;;;7.45;6.10;;;19.90;90.80;;;;;;5065110;28;20201;-71
2022/08/17 03:35:23;;;;;;;7.32;5.75;;;19.90;90.70;;;;;;5072989;28;20032;-71
2022/08/17 03:37:49;;;;;;;9.68;5.75;;;19.90;90.60;;;;;;5063255;28;20392;-71
2022/08/17 03:40:16;;;;;;;6.90;6.20;;;19.80;90.60;;;;;;5064311;28;20032;-71
2022/08/17 03:42:42;;;;;;;6.90;5.90;;;19.70;90.70;;;;;;5068595;28;20109;-71
2022/08/17 03:45:15;;;;;;;6.20;5.60;;;19.70;91.00;;;;;;5072665;28;20029;-70
2022/08/17 03:58:49;;;;;;;10.60;8.73;;;19.60;92.80;;;;;;5061972;28;20029;-71
2022/08/17 04:01:15;;;;;;;9.43;8.10;;;19.70;93.70;;;;;;5064975;28;20673;-72
2022/08/17 04:03:40;;;;;;;9.15;8.25;;;19.70;94.30;;;;;;5063463;28;20064;-72
2022/08/17 04:06:06;;;;;;;9.20;8.27;;;19.80;94.80;;;;;;5066957;28;20120;-71
2022/08/17 04:08:34;;;;;;;9.43;8.40;;;19.90;95.10;;;;;;5068625;28;20040;-71
2022/08/17 04:11:00;;;;;;;9.32;8.32;;;20.00;95.20;;;;;;5064353;28;20044;-71
2022/08/17 04:13:26;;;;;;;8.40;7.60;;;20.00;94.90;;;;;;5065314;28;20123;-71
2022/08/17 04:15:52;;;;;;;9.93;7.80;;;20.10;94.90;;;;;;5062352;28;20025;-72
2022/08/17 04:18:18;;;;;;;7.97;7.18;;;20.10;94.70;;;;;;5065349;28;20075;-71
2022/08/17 04:20:44;;;;;;;9.95;7.25;;;20.10;94.50;;;;;;5069689;28;20040;-71
2022/08/17 04:23:16;;;;;;;8.98;6.63;;;20.10;94.40;;;;;;5070557;28;20025;-72
2022/08/17 04:25:44;;;;;;;7.03;6.32;;;20.10;93.90;;;;;;5073158;28;20028;-72
2022/08/17 04:28:10;;;;;;;7.75;6.82;;;20.10;93.70;;;;;;5069530;28;20036;-71
2022/08/17 04:30:37;;;;;;;11.65;6.95;;;20.10;93.60;;;;;;5071794;28;20028;-71
2022/08/17 04:33:23;;;;;;;7.38;6.68;;;20.20;93.50;;;;;;5062734;28;20123;-72
2022/08/17 04:35:58;;;;;;;6.57;5.97;;;20.20;93.40;;;;;;5072315;28;20057;-71
2022/08/17 04:38:27;;;;;;;6.80;6.20;;;20.10;93.30;;;;;;5073424;28;20020;-71
2022/08/17 04:43:41;;;;;;;7.83;6.10;;;20.10;93.30;;;;;;5073922;28;20059;-71
2022/08/17 04:46:10;;;;;;;10.13;6.85;;;20.20;93.30;;;;;;5075220;28;20040;-71
2022/08/17 04:48:41;;;;;;;6.65;6.05;;;20.20;93.50;;;;;;5070616;28;20038;-71
2022/08/17 04:51:14;;;;;;;7.22;6.50;;;20.20;93.50;;;;;;5074310;28;20055;-71
2022/08/17 04:53:43;;;;;;;7.68;5.97;;;20.20;93.60;;;;;;5070500;28;20154;-71
2022/08/17 04:56:10;;;;;;;7.00;6.25;;;20.20;93.50;;;;;;5083429;28;20040;-71
2022/08/17 04:58:36;;;;;;;6.80;6.18;;;20.20;93.40;;;;;;5071374;28;20792;-71
2022/08/17 05:01:02;;;;;;;6.60;5.93;;;20.30;93.00;;;;;;5079336;28;20028;-71
2022/08/17 05:03:28;;;;;;;7.05;6.13;;;20.30;92.90;;;;;;5078852;28;20064;-70
2022/08/17 05:05:54;;;;;;;7.05;6.35;;;20.40;92.70;;;;;;5071798;28;20029;-71
2022/08/17 05:08:20;;;;;;;7.13;6.45;;;20.30;92.50;;;;;;5077652;28;20675;-71
2022/08/17 05:10:47;;;;;;;7.60;5.95;;;20.30;92.40;;;;;;5072776;28;20040;-70
2022/08/17 05:13:22;;;;;;;6.95;5.75;;;20.30;92.40;;;;;;5074096;28;20040;-71
2022/08/17 05:15:51;;;;;;;6.57;5.97;;;20.30;92.30;;;;;;5066348;28;20029;-71
2022/08/17 05:18:17;;;;;;;7.15;6.35;;;20.40;92.10;;;;;;5072099;28;20794;-70
2022/08/17 05:20:43;;;;;;;7.43;5.57;;;20.40;91.90;;;;;;5075814;28;20036;-71
2022/08/17 05:23:12;;;;;;;7.35;6.47;;;20.40;91.80;;;;;;5073705;28;20578;-71
2022/08/17 05:25:47;;;;;;;6.80;5.95;;;20.40;91.70;;;;;;5072897;28;20453;-71
2022/08/17 05:28:13;;;;;;;7.63;6.82;;;20.40;91.60;;;;;;5074844;28;20036;-71
2022/08/17 05:30:41;;;;;;;8.38;6.25;;;20.50;91.70;;;;;;5074117;28;20115;-71
2022/08/17 05:33:13;;;;;;;10.13;6.57;;;20.50;91.80;;;;;;5069900;28;20042;-71
2022/08/17 05:35:43;;;;;;;7.75;6.45;;;20.60;91.90;;;;;;5062111;28;20052;-71
2022/08/17 05:38:09;;;;;;;7.05;6.05;;;20.60;92.00;;;;;;5067468;28;20067;-71
2022/08/17 05:40:36;;;;;;;8.25;6.63;;;20.70;92.00;;;;;;5077734;28;20036;-71
2022/08/17 05:43:08;;;;;;;7.25;6.55;;;20.80;92.00;;;;;;5068429;28;20127;-71
2022/08/17 05:45:38;;;;;;;7.50;6.57;;;20.80;92.00;;;;;;5073365;28;20042;-71
2022/08/17 05:48:04;;;;;;;7.32;6.60;;;20.90;92.00;;;;;;5072912;28;20519;-71
2022/08/17 05:50:56;;;;;;;38.65;10.65;;;21.00;92.00;;;;;;5066585;28;20060;-71
2022/08/17 05:53:34;;;;;;;17.00;8.85;;;21.10;92.60;;;;;;5045368;28;20040;-71
2022/08/17 05:56:12;;;;;;;11.80;7.65;;;21.10;92.70;;;;;;5067671;28;20036;-71
2022/08/17 05:58:56;;;;;;;9.60;6.70;;;21.20;92.80;;;;;;5070382;28;20106;-71
2022/08/17 06:01:37;;;;;;;7.90;7.10;;;21.30;92.90;;;;;;5075931;28;20051;-71
2022/08/17 06:04:29;;;;;;;8.07;6.90;;;21.40;92.90;;;;;;5073160;28;20037;-72
2022/08/17 06:07:10;;;;;;;8.93;6.95;;;21.50;92.80;;;;;;5066414;28;20032;-71
2022/08/17 06:09:49;;;;;;;9.18;6.80;;;21.60;92.60;;;;;;5071898;28;20098;-71
2022/08/17 06:12:30;;;;;;;8.07;7.13;;;21.80;92.60;;;;;;5064045;28;20086;-71
2022/08/17 06:15:23;;;;;;;7.97;7.18;;;21.90;92.20;;;;;;5066882;28;20036;-71
2022/08/17 06:18:02;;;;;;;7.45;6.75;;;22.00;92.10;;;;;;5072279;28;20476;-71
2022/08/17 06:20:37;;;;;;;7.65;6.85;;;22.30;91.30;;;;;;5076446;28;20725;-72
2022/08/17 06:23:33;;;;;;;8.60;6.95;;;22.50;90.30;;;;;;5068058;28;20074;-71
2022/08/17 06:26:03;;;;;;;8.38;5.95;;;22.70;89.20;;;;;;5071275;28;20123;-71
2022/08/17 06:28:38;;;;;;;8.93;6.75;;;22.90;85.90;;;;;;5067273;28;20498;-71
2022/08/17 06:31:15;;;;;;;9.05;5.93;;;23.10;84.50;;;;;;5071047;28;20040;-71
2022/08/17 06:33:45;;;;;;;6.35;5.75;;;23.20;83.80;;;;;;5068398;28;20033;-71
2022/08/17 06:36:31;;;;;;;6.25;5.55;;;23.30;83.80;;;;;;5068713;28;20028;-71
2022/08/17 06:39:21;;;;;;;6.82;5.95;;;23.50;82.50;;;;;;5068557;28;20109;-71
2022/08/17 06:42:19;;;;;;;7.97;6.38;;;23.60;80.50;;;;;;5067948;28;20024;-71
2022/08/17 06:44:48;;;;;;;6.50;5.90;;;23.90;79.90;;;;;;5067510;28;20032;-71
2022/08/17 06:47:30;;;;;;;7.38;5.63;;;24.20;77.50;;;;;;5072191;28;20032;-71
2022/08/17 06:50:17;;;;;;;7.80;5.32;;;24.50;76.70;;;;;;5070209;28;20439;-71
2022/08/17 06:52:50;;;;;;;6.72;4.88;;;24.60;75.60;;;;;;5069146;28;20789;-71
2022/08/17 06:55:25;;;;;;;6.35;5.18;;;24.70;74.70;;;;;;5070156;28;20691;-71
2022/08/17 06:57:57;;;;;;;6.78;5.05;;;24.80;74.20;;;;;;5073072;28;20036;-71
2022/08/17 07:00:32;;;;;;;7.22;5.45;;;25.00;73.50;;;;;;5069809;28;20032;-71
2022/08/17 07:03:07;;;;;;;5.07;4.57;;;25.10;72.90;;;;;;5068580;28;20039;-71
2022/08/17 07:05:40;;;;;;;5.70;4.70;;;25.20;71.60;;;;;;5063312;28;20546;-71
2022/08/17 07:08:33;;;;;;;8.18;4.70;;;25.30;70.80;;;;;;5062596;28;20028;-71
2022/08/17 07:11:12;;;;;;;5.18;4.63;;;25.50;69.90;;;;;;5068822;28;20048;-71
2022/08/17 07:13:53;;;;;;;4.85;4.35;;;25.60;69.40;;;;;;5067651;28;20036;-71
2022/08/17 07:16:32;;;;;;;4.95;4.45;;;25.80;68.70;;;;;;5068436;28;20043;-71
2022/08/17 07:18:58;;;;;;;5.03;4.25;;;25.90;68.20;;;;;;5072917;28;20032;-71
2022/08/17 07:21:27;;;;;;;5.88;4.43;;;26.00;67.80;;;;;;5067573;28;20039;-72
2022/08/17 07:24:07;;;;;;;5.10;4.60;;;26.10;65.80;;;;;;5063231;28;20321;-71
2022/08/17 07:26:33;;;;;;;5.97;4.20;;;26.10;64.20;;;;;;5074897;28;20719;-71
2022/08/17 07:29:00;;;;;;;5.22;3.55;;;26.20;63.80;;;;;;5071575;28;20036;-71
2022/08/17 07:31:29;;;;;;;6.35;3.75;;;26.30;62.70;;;;;;5065609;28;20040;-71
2022/08/17 07:34:09;;;;;;;6.15;4.20;;;26.40;61.40;;;;;;5070331;28;20087;-71
2022/08/17 07:36:36;;;;;;;8.85;3.67;;;26.60;61.00;;;;;;5076067;28;20139;-71
2022/08/17 07:39:02;;;;;;;5.07;3.78;;;26.70;60.50;;;;;;5066412;28;20054;-71
2022/08/17 07:41:33;;;;;;;4.13;3.60;;;26.90;60.20;;;;;;5069013;28;20100;-71
2022/08/17 07:43:59;;;;;;;7.25;3.80;;;27.00;59.60;;;;;;5069164;28;20455;-71
2022/08/17 07:49:36;;;;;;;5.18;3.95;;;27.30;58.50;;;;;;5060899;28;20040;-72
2022/08/17 07:52:24;;;;;;;3.85;3.42;;;27.40;58.20;;;;;;5071788;28;20028;-71
2022/08/17 07:54:50;;;;;;;6.13;3.65;;;27.50;57.50;;;;;;5069249;28;20028;-71
2022/08/17 07:57:21;;;;;;;4.00;3.42;;;27.60;56.60;;;;;;5067974;28;20051;-71
2022/08/17 07:59:59;;;;;;;4.68;3.30;;;27.60;56.20;;;;;;5063891;28;20029;-71
2022/08/17 08:02:27;;;;;;;3.53;3.22;;;27.60;56.30;;;;;;5068672;28;20115;-71
2022/08/17 08:05:27;;;;;;;6.43;3.60;;;27.70;55.60;;;;;;5064028;28;20039;-71
2022/08/17 08:08:04;;;;;;;4.78;3.75;;;27.80;55.00;;;;;;5048623;28;20049;-71
2022/08/17 08:10:37;;;;;;;3.88;3.35;;;27.90;54.50;;;;;;5066588;28;20054;-72
2022/08/17 08:13:06;;;;;;;6.40;3.60;;;28.00;55.00;;;;;;5072208;28;20110;-71
2022/08/17 08:15:36;;;;;;;3.80;3.38;;;28.10;54.00;;;;;;5068203;28;20052;-72
2022/08/17 08:18:04;;;;;;;5.60;3.50;;;28.20;54.50;;;;;;5069018;28;20025;-71
2022/08/17 08:20:48;;;;;;;4.25;3.40;;;28.30;54.00;;;;;;5067973;28;20016;-71
2022/08/17 08:23:43;;;;;;;4.78;3.72;;;28.40;52.60;;;;;;5068966;28;20152;-71
2022/08/17 08:26:25;;;;;;;6.30;3.47;;;28.50;52.60;;;;;;5065907;28;20036;-71
2022/08/17 08:29:00;;;;;;;5.47;3.78;;;28.50;52.80;;;;;;5070983;28;20027;-72
2022/08/17 08:31:59;;;;;;;6.07;3.33;;;28.50;53.00;;;;;;5072009;28;20032;-71
2022/08/17 08:34:36;;;;;;;6.03;3.22;;;28.70;52.30;;;;;;5071780;28;20032;-71
2022/08/17 08:37:16;;;;;;;4.95;2.90;;;28.80;52.00;;;;;;5071727;28;20124;-71
2022/08/17 08:40:03;;;;;;;5.30;3.10;;;28.90;51.70;;;;;;5066481;28;20029;-72
2022/08/17 08:42:51;;;;;;;5.40;2.95;;;29.10;50.40;;;;;;5064941;28;20734;-72
2022/08/17 08:45:22;;;;;;;3.95;3.08;;;29.10;49.20;;;;;;5067143;28;20081;-71
2022/08/17 08:48:12;;;;;;;6.47;2.90;;;29.20;49.20;;;;;;5069604;28;20032;-72
2022/08/17 08:50:50;;;;;;;3.20;2.90;;;29.30;50.40;;;;;;5073285;28;20217;-71
2022/08/17 08:53:38;;;;;;;4.82;2.92;;;29.40;48.90;;;;;;5072844;28;20039;-72
2022/08/17 08:56:08;;;;;;;3.33;2.90;;;29.50;48.90;;;;;;5066595;28;20090;-71
2022/08/17 08:58:51;;;;;;;4.50;2.78;;;29.70;47.60;;;;;;5071387;28;20073;-71
2022/08/17 09:01:26;;;;;;;4.68;2.70;;;29.70;48.40;;;;;;5072349;28;20156;-71
2022/08/17 09:03:58;;;;;;;;;;;29.90;48.20;;;;;;5069074;28;20502;-71
2022/08/17 09:07:06;;;;;;;3.70;3.30;;;30.00;47.60;;;;;;5069142;28;20342;-72
2022/08/17 09:09:44;;;;;;;4.97;3.15;;;30.10;47.40;;;;;;5064785;28;20043;-72
2022/08/17 09:12:17;;;;;;;4.38;3.03;;;30.20;47.50;;;;;;5067088;28;20074;-72
2022/08/17 09:15:02;;;;;;;4.47;3.13;;;30.20;47.40;;;;;;5066558;28;20035;-71
2022/08/17 09:17:38;;;;;;;4.35;3.00;;;30.20;45.80;;;;;;5075030;28;20028;-71
2022/08/17 09:20:15;;;;;;;3.75;2.90;;;30.40;46.80;;;;;;5067428;28;20051;-71
2022/08/17 09:22:46;;;;;;;4.53;3.00;;;30.50;46.20;;;;;;5065944;28;20032;-71
2022/08/17 09:25:16;;;;;;;6.72;2.92;;;30.60;46.40;;;;;;5077309;28;20024;-71
2022/08/17 09:28:02;;;;;;;5.25;3.10;;;30.50;46.20;;;;;;5075862;28;20028;-72
2022/08/17 09:30:45;;;;;;;4.05;2.97;;;30.60;46.20;;;;;;5073018;28;20082;-71
2022/08/17 09:33:16;;;;;;;6.70;3.30;;;30.70;45.90;;;;;;5072643;28;20037;-72
2022/08/17 09:35:49;;;;;;;4.22;2.97;;;30.80;46.50;;;;;;5079235;28;20035;-72
2022/08/17 09:38:44;;;;;;;4.00;2.03;;;30.80;44.00;;;;;;5081513;28;20024;-72
2022/08/17 09:41:40;;;;;;;3.03;2.40;;;30.70;44.10;;;;;;5073143;28;20614;-72
2022/08/17 09:44:26;;;;;;;7.43;2.60;;;30.90;43.80;;;;;;5072800;28;20039;-72
2022/08/17 09:47:00;;;;;;;4.05;2.70;;;31.00;44.40;;;;;;5080207;28;20039;-72
2022/08/17 09:49:41;;;;;;;4.22;2.80;;;31.00;44.70;;;;;;5076719;28;20096;-72
2022/08/17 09:52:18;;;;;;;6.97;2.47;;;31.10;44.10;;;;;;5073433;28;20063;-71
2022/08/17 09:54:45;;;;;;;8.00;2.80;;;31.20;43.70;;;;;;5066162;28;20806;-71
2022/08/17 09:57:10;;;;;;;3.17;2.80;;;31.20;43.90;;;;;;5066558;28;20488;-72
2022/08/17 10:00:15;;;;;;;3.25;2.80;;;31.30;44.00;;;;;;5062343;28;20032;-71
2022/08/17 10:02:59;;;;;;;5.72;2.85;;;31.30;44.70;;;;;;5068061;28;20089;-71
2022/08/17 10:05:45;;;;;;;5.68;3.03;;;31.50;44.00;;;;;;5070450;28;20123;-72
2022/08/17 10:08:31;;;;;;;4.57;3.00;;;31.50;44.00;;;;;;5075254;28;20029;-72
2022/08/17 10:11:06;;;;;;;3.70;3.00;;;31.70;43.60;;;;;;5065530;28;20803;-72
2022/08/17 10:13:43;;;;;;;5.03;3.05;;;31.70;43.30;;;;;;5068410;28;20122;-72
2022/08/17 10:16:14;;;;;;;5.78;3.15;;;31.70;43.90;;;;;;5064788;28;20109;-72
2022/08/17 10:18:58;;;;;;;5.15;3.20;;;31.70;43.90;;;;;;5063851;28;20029;-72
2022/08/17 10:27:00;;;;;;;8.05;2.78;;;31.90;42.90;;;;;;5068562;28;20042;-71
2022/08/17 10:29:40;;;;;;;4.38;2.92;;;32.00;41.90;;;;;;5069465;28;20032;-72
2022/08/17 10:32:10;;;;;;;5.38;2.72;;;31.90;41.80;;;;;;5066755;28;20036;-72
2022/08/17 10:34:39;;;;;;;7.40;3.03;;;31.90;42.10;;;;;;5063661;28;20417;-71
2022/08/17 10:37:36;;;;;;;3.10;2.80;;;32.00;42.70;;;;;;5066135;28;20408;-72
2022/08/17 10:40:44;;;;;;;5.05;2.50;;;32.00;42.70;;;;;;5067722;28;20028;-72
2022/08/17 10:43:17;;;;;;;5.50;2.35;;;32.10;42.20;;;;;;5039115;28;20049;-72
2022/08/17 10:46:01;;;;;;;4.43;2.60;;;32.20;41.90;;;;;;5068180;28;20118;-72
2022/08/17 10:48:37;;;;;;;3.10;2.80;;;32.20;41.70;;;;;;5067570;28;20132;-71
2022/08/17 10:51:09;;;;;;;4.60;3.08;;;32.10;42.10;;;;;;5073028;28;20044;-72
2022/08/17 10:53:35;;;;;;;3.10;2.50;;;32.00;42.30;;;;;;5073055;28;20040;-72
2022/08/17 10:56:21;;;;;;;3.33;2.40;;;31.80;41.30;;;;;;5065759;28;20139;-72
2022/08/17 10:58:56;;;;;;;2.90;2.58;;;31.90;41.80;;;;;;5065284;28;20028;-72
2022/08/17 11:01:44;;;;;;;3.25;2.95;;;32.00;42.00;;;;;;5073810;28;20059;-72
2022/08/17 11:04:39;;;;;;;3.05;2.70;;;31.90;41.70;;;;;;5075416;28;20035;-71
2022/08/17 11:07:11;;;;;;;5.63;2.73;;;32.00;42.30;;;;;;5059052;28;20448;-72
2022/08/17 11:10:15;;;;;;;3.35;2.70;;;32.00;41.40;;;;;;5065291;28;20796;-72
2022/08/17 11:13:07;;;;;;;4.53;3.03;;;31.90;42.10;;;;;;5066064;28;20044;-72
2022/08/17 11:15:44;;;;;;;5.32;2.72;;;31.80;41.30;;;;;;5064903;28;20152;-72
2022/08/17 11:18:38;;;;;;;5.07;2.60;;;31.70;41.90;;;;;;5069155;28;20125;-71
2022/08/17 11:21:38;;;;;;;3.03;2.60;;;31.60;42.50;;;;;;5067618;28;20115;-72
2022/08/17 11:24:22;;;;;;;5.15;2.40;;;31.60;42.50;;;;;;5059802;28;20107;-72
2022/08/17 11:27:10;;;;;;;4.00;2.67;;;31.50;41.50;;;;;;5064941;28;20028;-72
2022/08/17 11:29:57;;;;;;;5.13;2.80;;;31.50;41.90;;;;;;5063976;28;20024;-72
2022/08/17 11:32:31;;;;;;;4.13;2.67;;;31.50;42.40;;;;;;5063592;28;20075;-72
2022/08/17 11:35:21;;;;;;;3.17;2.40;;;31.50;42.10;;;;;;5065873;28;20042;-71
2022/08/17 11:38:08;;;;;;;3.55;2.40;;;31.40;42.00;;;;;;5076383;28;20028;-72
2022/08/17 11:40:53;;;;;;;2.60;2.40;;;31.40;42.30;;;;;;5072632;28;20478;-71
2022/08/17 11:43:30;;;;;;;2.70;2.20;;;31.40;42.30;;;;;;5074974;28;20039;-72
2022/08/17 11:46:04;;;;;;;4.05;2.90;;;31.40;42.90;;;;;;5064683;28;20701;-72
2022/08/17 11:51:58;;;;;;;2.90;2.45;;;31.40;41.90;;;;;;5061972;28;20312;-71
2022/08/17 11:54:36;;;;;;;3.10;2.80;;;31.40;42.40;;;;;;5065212;28;20080;-71
2022/08/17 11:57:24;;;;;;;3.20;2.20;;;31.40;41.60;;;;;;5072438;28;20059;-72
2022/08/17 12:00:00;;;;;;;2.92;2.40;;;31.40;41.40;;;;;;5069289;28;20507;-72
2022/08/17 12:02:29;;;;;;;2.50;2.30;;;31.50;41.70;;;;;;5075941;28;20722;-71
2022/08/17 12:05:14;;;;;;;3.15;2.50;;;31.50;40.70;;;;;;5066683;28;20484;-71
2022/08/17 12:07:45;;;;;;;3.92;2.33;;;31.50;42.10;;;;;;5069083;28;20068;-71
2022/08/17 12:10:16;;;;;;;4.15;2.63;;;31.50;41.40;;;;;;5069780;28;20064;-71
2022/08/17 12:12:43;;;;;;;2.88;2.58;;;31.50;41.60;;;;;;5064442;28;20448;-71
2022/08/17 12:15:23;;;;;;;2.63;2.22;;;31.50;41.70;;;;;;5068353;28;20052;-71
2022/08/17 12:17:53;;;;;;;5.25;2.38;;;31.50;41.60;;;;;;5071822;28;20033;-71
2022/08/17 12:20:32;;;;;;;2.65;2.20;;;31.50;42.00;;;;;;5067454;28;20086;-71
2022/08/17 12:23:23;;;;;;;2.50;2.30;;;31.50;41.70;;;;;;5069108;28;20675;-71
2022/08/17 12:26:24;;;;;;;4.85;2.45;;;31.50;41.90;;;;;;5062032;28;20843;-71
2022/08/17 12:28:56;;;;;;;6.40;2.70;;;31.60;41.70;;;;;;5060864;28;20115;-71
2022/08/17 12:31:48;;;;;;;2.60;2.40;;;31.70;41.80;;;;;;5068948;28;20036;-71
2022/08/17 12:34:22;;;;;;;3.00;2.40;;;31.80;41.40;;;;;;5068564;28;20135;-71
2022/08/17 12:36:49;;;;;;;3.40;2.22;;;31.90;41.50;;;;;;5067767;28;20038;-71
2022/08/17 12:39:20;;;;;;;2.85;2.58;;;31.90;41.10;;;;;;5067554;28;20044;-71
2022/08/17 12:41:49;;;;;;;7.25;2.90;;;32.00;40.50;;;;;;5066453;28;20547;-72
2022/08/17 12:44:33;;;;;;;5.28;2.67;;;32.20;40.60;;;;;;5065084;28;20036;-71
2022/08/17 12:47:18;;;;;;;7.68;2.33;;;32.40;40.90;;;;;;5062901;28;20556;-69
2022/08/17 12:49:49;;;;;;;2.60;2.40;;;32.50;41.20;;;;;;5061004;28;20067;-70
2022/08/17 12:52:16;;;;;;;3.65;2.38;;;32.70;40.10;;;;;;5065339;28;20036;-70
2022/08/17 12:54:50;;;;;;;3.83;2.80;;;32.70;40.10;;;;;;5069667;28;20090;-71
2022/08/17 12:57:39;;;;;;;3.58;2.78;;;32.70;39.40;;;;;;5069231;28;20072;-70
2022/08/17 13:00:17;;;;;;;4.35;2.35;;;32.60;39.50;;;;;;5073698;28;20037;-70
2022/08/17 13:02:49;;;;;;;3.15;2.40;;;32.70;39.90;;;;;;5071081;28;20033;-70
2022/08/17 13:05:35;;;;;;;3.95;2.60;;;32.70;39.90;;;;;;5070133;28;20032;-70
2022/08/17 13:08:12;;;;;;;5.95;2.60;;;32.70;40.10;;;;;;5072358;28;20487;-70
2022/08/17 13:10:39;;;;;;;2.55;2.35;;;32.70;39.60;;;;;;5067351;28;20165;-70
2022/08/17 13:13:25;;;;;;;4.82;3.00;;;32.80;39.60;;;;;;5070617;28;20067;-70
2022/08/17 13:16:02;;;;;;;3.28;2.53;;;32.80;40.10;;;;;;5079752;28;20101;-70
2022/08/17 13:18:34;;;;;;;4.05;2.40;;;32.80;38.60;;;;;;5070294;28;20024;-70
2022/08/17 13:21:00;;;;;;;2.78;2.50;;;32.70;38.70;;;;;;5065285;28;20039;-70
2022/08/17 13:23:28;;;;;;;3.15;2.60;;;32.70;39.80;;;;;;5066643;28;20040;-70
2022/08/17 13:25:56;;;;;;;4.30;2.50;;;32.70;39.20;;;;;;5063412;28;20085;-70
2022/08/17 13:28:26;;;;;;;4.30;2.70;;;32.70;38.70;;;;;;5063332;28;20481;-70
2022/08/17 13:31:12;;;;;;;3.67;2.80;;;32.70;39.40;;;;;;5074992;28;20064;-70
2022/08/17 13:33:37;;;;;;;3.80;2.60;;;32.60;39.30;;;;;;5073588;28;20024;-70
2022/08/17 13:36:07;;;;;;;4.28;2.47;;;32.60;40.00;;;;;;5072154;28;20381;-71
2022/08/17 13:38:48;;;;;;;6.00;2.70;;;32.60;40.00;;;;;;5067983;28;20057;-70
2022/08/17 13:41:35;;;;;;;4.68;2.50;;;32.40;39.70;;;;;;5073502;28;20047;-70
2022/08/17 13:44:00;;;;;;;6.18;2.72;;;32.30;39.90;;;;;;5063918;28;20037;-70
2022/08/17 13:46:32;;;;;;;4.60;2.50;;;32.30;40.40;;;;;;5067249;28;20031;-70
2022/08/17 13:49:04;;;;;;;3.50;2.50;;;32.40;39.50;;;;;;5065873;28;20029;-70
2022/08/17 13:51:44;;;;;;;5.05;2.70;;;32.40;40.00;;;;;;5068456;28;20100;-70